sensor_id;sensor_type;location;lat;lon;timestamp;P1;durP1;ratioP1;P2;durP2;ratioP2
19024;SDS011;9645;51.448;6.260;2023-10-31T00:00:57;7.28;;;4.85;;
19024;SDS011;9645;51.448;6.260;2023-10-31T00:03:24;6.30;;;4.20;;
19024;SDS011;9645;51.448;6.260;2023-10-31T00:05:51;4.07;;;3.10;;
19024;SDS011;9645;51.448;6.260;2023-10-31T00:08:18;4.25;;;2.92;;
19024;SDS011;9645;51.448;6.260;2023-10-31T00:10:44;3.78;;;2.40;;
19024;SDS011;9645;51.448;6.260;2023-10-31T00:13:12;2.60;;;2.05;;
19024;SDS011;9645;51.448;6.260;2023-10-31T00:15:40;4.57;;;2.50;;
19024;SDS011;9645;51.448;6.260;2023-10-31T00:18:07;3.63;;;2.92;;
19024;SDS011;9645;51.448;6.260;2023-10-31T00:20:34;7.63;;;2.42;;
19024;SDS011;9645;51.448;6.260;2023-10-31T00:23:01;5.10;;;2.35;;
19024;SDS011;9645;51.448;6.260;2023-10-31T00:25:28;8.65;;;3.00;;
19024;SDS011;9645;51.448;6.260;2023-10-31T00:27:55;4.15;;;2.42;;
19024;SDS011;9645;51.448;6.260;2023-10-31T00:30:22;3.00;;;2.70;;
19024;SDS011;9645;51.448;6.260;2023-10-31T00:32:50;2.97;;;2.40;;
19024;SDS011;9645;51.448;6.260;2023-10-31T00:35:17;3.35;;;3.00;;
19024;SDS011;9645;51.448;6.260;2023-10-31T00:37:44;8.88;;;3.78;;
19024;SDS011;9645;51.448;6.260;2023-10-31T00:40:11;8.10;;;4.85;;
19024;SDS011;9645;51.448;6.260;2023-10-31T00:42:39;10.65;;;5.82;;
19024;SDS011;9645;51.448;6.260;2023-10-31T00:45:07;11.75;;;6.63;;
19024;SDS011;9645;51.448;6.260;2023-10-31T00:47:35;12.27;;;7.55;;
19024;SDS011;9645;51.448;6.260;2023-10-31T00:50:04;15.60;;;8.27;;
19024;SDS011;9645;51.448;6.260;2023-10-31T00:52:32;16.75;;;8.90;;
19024;SDS011;9645;51.448;6.260;2023-10-31T00:54:59;18.45;;;9.48;;
19024;SDS011;9645;51.448;6.260;2023-10-31T00:57:25;18.92;;;8.85;;
19024;SDS011;9645;51.448;6.260;2023-10-31T00:59:53;19.73;;;10.20;;
19024;SDS011;9645;51.448;6.260;2023-10-31T01:02:20;14.73;;;8.20;;
19024;SDS011;9645;51.448;6.260;2023-10-31T01:04:47;16.77;;;9.63;;
19024;SDS011;9645;51.448;6.260;2023-10-31T01:07:15;20.77;;;10.00;;
19024;SDS011;9645;51.448;6.260;2023-10-31T01:09:43;19.80;;;9.60;;
19024;SDS011;9645;51.448;6.260;2023-10-31T01:12:10;17.90;;;8.90;;
19024;SDS011;9645;51.448;6.260;2023-10-31T01:14:37;19.77;;;10.48;;
19024;SDS011;9645;51.448;6.260;2023-10-31T01:17:04;20.65;;;9.38;;
19024;SDS011;9645;51.448;6.260;2023-10-31T01:19:31;20.80;;;10.10;;
19024;SDS011;9645;51.448;6.260;2023-10-31T01:21:58;15.85;;;9.38;;
19024;SDS011;9645;51.448;6.260;2023-10-31T01:24:26;15.70;;;8.63;;
19024;SDS011;9645;51.448;6.260;2023-10-31T01:26:53;19.92;;;10.00;;
19024;SDS011;9645;51.448;6.260;2023-10-31T01:29:21;17.90;;;9.35;;
19024;SDS011;9645;51.448;6.260;2023-10-31T01:31:48;18.10;;;9.60;;
19024;SDS011;9645;51.448;6.260;2023-10-31T01:34:15;17.85;;;9.15;;
19024;SDS011;9645;51.448;6.260;2023-10-31T01:36:42;17.17;;;8.25;;
19024;SDS011;9645;51.448;6.260;2023-10-31T01:39:09;17.52;;;7.63;;
19024;SDS011;9645;51.448;6.260;2023-10-31T01:41:37;14.43;;;6.95;;
19024;SDS011;9645;51.448;6.260;2023-10-31T01:44:06;21.10;;;7.60;;
19024;SDS011;9645;51.448;6.260;2023-10-31T01:46:33;13.88;;;6.95;;
19024;SDS011;9645;51.448;6.260;2023-10-31T01:49:00;14.85;;;8.13;;
19024;SDS011;9645;51.448;6.260;2023-10-31T01:51:28;16.50;;;7.72;;
19024;SDS011;9645;51.448;6.260;2023-10-31T01:53:55;18.30;;;8.25;;
19024;SDS011;9645;51.448;6.260;2023-10-31T01:56:23;17.75;;;7.78;;
19024;SDS011;9645;51.448;6.260;2023-10-31T01:58:52;18.30;;;9.10;;
19024;SDS011;9645;51.448;6.260;2023-10-31T02:01:19;22.45;;;10.13;;
19024;SDS011;9645;51.448;6.260;2023-10-31T02:03:47;26.40;;;9.82;;
19024;SDS011;9645;51.448;6.260;2023-10-31T02:06:14;32.30;;;10.15;;
19024;SDS011;9645;51.448;6.260;2023-10-31T02:08:41;23.15;;;10.18;;
19024;SDS011;9645;51.448;6.260;2023-10-31T02:11:08;25.30;;;11.02;;
19024;SDS011;9645;51.448;6.260;2023-10-31T02:13:36;26.27;;;11.88;;
19024;SDS011;9645;51.448;6.260;2023-10-31T02:16:05;23.02;;;12.20;;
19024;SDS011;9645;51.448;6.260;2023-10-31T02:18:33;25.42;;;10.73;;
19024;SDS011;9645;51.448;6.260;2023-10-31T02:21:00;24.20;;;11.57;;
19024;SDS011;9645;51.448;6.260;2023-10-31T02:23:28;32.53;;;12.25;;
19024;SDS011;9645;51.448;6.260;2023-10-31T02:25:55;24.85;;;11.50;;
19024;SDS011;9645;51.448;6.260;2023-10-31T02:28:22;27.83;;;12.55;;
19024;SDS011;9645;51.448;6.260;2023-10-31T02:30:52;29.33;;;12.20;;
19024;SDS011;9645;51.448;6.260;2023-10-31T02:33:19;31.95;;;12.50;;
19024;SDS011;9645;51.448;6.260;2023-10-31T02:35:46;36.67;;;13.18;;
19024;SDS011;9645;51.448;6.260;2023-10-31T02:38:14;29.38;;;13.68;;
19024;SDS011;9645;51.448;6.260;2023-10-31T02:40:42;30.20;;;12.57;;
19024;SDS011;9645;51.448;6.260;2023-10-31T02:43:09;29.65;;;12.43;;
19024;SDS011;9645;51.448;6.260;2023-10-31T02:45:36;35.45;;;14.00;;
19024;SDS011;9645;51.448;6.260;2023-10-31T02:48:03;40.42;;;13.80;;
19024;SDS011;9645;51.448;6.260;2023-10-31T02:50:30;31.90;;;12.63;;
19024;SDS011;9645;51.448;6.260;2023-10-31T02:52:57;25.98;;;11.93;;
19024;SDS011;9645;51.448;6.260;2023-10-31T02:55:24;27.88;;;12.63;;
19024;SDS011;9645;51.448;6.260;2023-10-31T02:57:52;23.85;;;10.82;;
19024;SDS011;9645;51.448;6.260;2023-10-31T03:00:19;20.45;;;10.45;;
19024;SDS011;9645;51.448;6.260;2023-10-31T03:02:46;23.08;;;10.40;;
19024;SDS011;9645;51.448;6.260;2023-10-31T03:05:13;15.48;;;8.80;;
19024;SDS011;9645;51.448;6.260;2023-10-31T03:07:40;23.65;;;9.88;;
19024;SDS011;9645;51.448;6.260;2023-10-31T03:10:07;20.80;;;7.70;;
19024;SDS011;9645;51.448;6.260;2023-10-31T03:12:34;17.08;;;7.80;;
19024;SDS011;9645;51.448;6.260;2023-10-31T03:15:03;16.33;;;7.30;;
19024;SDS011;9645;51.448;6.260;2023-10-31T03:17:30;15.15;;;7.15;;
19024;SDS011;9645;51.448;6.260;2023-10-31T03:19:57;14.82;;;6.93;;
19024;SDS011;9645;51.448;6.260;2023-10-31T03:22:24;15.55;;;7.30;;
19024;SDS011;9645;51.448;6.260;2023-10-31T03:24:51;16.80;;;6.70;;
19024;SDS011;9645;51.448;6.260;2023-10-31T03:27:18;17.33;;;7.53;;
19024;SDS011;9645;51.448;6.260;2023-10-31T03:29:45;15.10;;;7.63;;
19024;SDS011;9645;51.448;6.260;2023-10-31T03:32:14;16.88;;;7.30;;
19024;SDS011;9645;51.448;6.260;2023-10-31T03:34:41;14.13;;;8.05;;
19024;SDS011;9645;51.448;6.260;2023-10-31T03:37:08;17.25;;;8.50;;
19024;SDS011;9645;51.448;6.260;2023-10-31T03:39:34;17.85;;;8.30;;
19024;SDS011;9645;51.448;6.260;2023-10-31T03:42:01;17.33;;;7.82;;
19024;SDS011;9645;51.448;6.260;2023-10-31T03:44:30;12.40;;;6.70;;
19024;SDS011;9645;51.448;6.260;2023-10-31T03:46:57;14.30;;;6.95;;
19024;SDS011;9645;51.448;6.260;2023-10-31T03:49:25;26.98;;;9.43;;
19024;SDS011;9645;51.448;6.260;2023-10-31T03:51:52;22.20;;;8.48;;
19024;SDS011;9645;51.448;6.260;2023-10-31T03:54:19;16.65;;;8.55;;
19024;SDS011;9645;51.448;6.260;2023-10-31T03:56:46;18.90;;;8.32;;
19024;SDS011;9645;51.448;6.260;2023-10-31T03:59:13;17.35;;;8.00;;
19024;SDS011;9645;51.448;6.260;2023-10-31T04:01:40;19.73;;;8.65;;
19024;SDS011;9645;51.448;6.260;2023-10-31T04:04:07;19.13;;;9.13;;
19024;SDS011;9645;51.448;6.260;2023-10-31T04:06:36;20.23;;;9.10;;
19024;SDS011;9645;51.448;6.260;2023-10-31T04:09:05;20.45;;;9.60;;
19024;SDS011;9645;51.448;6.260;2023-10-31T04:11:33;20.10;;;9.82;;
19024;SDS011;9645;51.448;6.260;2023-10-31T04:13:59;21.20;;;9.98;;
19024;SDS011;9645;51.448;6.260;2023-10-31T04:16:26;21.42;;;9.57;;
19024;SDS011;9645;51.448;6.260;2023-10-31T04:18:53;19.30;;;9.40;;
19024;SDS011;9645;51.448;6.260;2023-10-31T04:21:20;22.02;;;9.07;;
19024;SDS011;9645;51.448;6.260;2023-10-31T04:23:49;28.20;;;10.55;;
19024;SDS011;9645;51.448;6.260;2023-10-31T04:26:15;27.20;;;10.73;;
19024;SDS011;9645;51.448;6.260;2023-10-31T04:28:42;26.55;;;10.45;;
19024;SDS011;9645;51.448;6.260;2023-10-31T04:31:09;20.52;;;9.90;;
19024;SDS011;9645;51.448;6.260;2023-10-31T04:33:36;22.83;;;9.60;;
19024;SDS011;9645;51.448;6.260;2023-10-31T04:36:03;25.20;;;10.02;;
19024;SDS011;9645;51.448;6.260;2023-10-31T04:38:31;22.42;;;10.20;;
19024;SDS011;9645;51.448;6.260;2023-10-31T04:40:59;22.40;;;9.80;;
19024;SDS011;9645;51.448;6.260;2023-10-31T04:43:26;23.20;;;10.10;;
19024;SDS011;9645;51.448;6.260;2023-10-31T04:45:53;17.70;;;9.35;;
19024;SDS011;9645;51.448;6.260;2023-10-31T04:48:20;20.27;;;9.88;;
19024;SDS011;9645;51.448;6.260;2023-10-31T04:50:46;23.85;;;10.27;;
19024;SDS011;9645;51.448;6.260;2023-10-31T04:53:13;20.98;;;10.02;;
19024;SDS011;9645;51.448;6.260;2023-10-31T04:55:40;29.63;;;11.75;;
19024;SDS011;9645;51.448;6.260;2023-10-31T04:58:09;27.45;;;10.25;;
19024;SDS011;9645;51.448;6.260;2023-10-31T05:00:35;26.85;;;10.68;;
19024;SDS011;9645;51.448;6.260;2023-10-31T05:03:02;22.27;;;10.13;;
19024;SDS011;9645;51.448;6.260;2023-10-31T05:05:29;22.67;;;11.02;;
19024;SDS011;9645;51.448;6.260;2023-10-31T05:07:56;23.00;;;10.75;;
19024;SDS011;9645;51.448;6.260;2023-10-31T05:10:23;24.02;;;11.48;;
19024;SDS011;9645;51.448;6.260;2023-10-31T05:12:50;20.95;;;10.15;;
19024;SDS011;9645;51.448;6.260;2023-10-31T05:15:19;25.02;;;10.80;;
19024;SDS011;9645;51.448;6.260;2023-10-31T05:17:46;20.60;;;9.98;;
19024;SDS011;9645;51.448;6.260;2023-10-31T05:20:13;23.08;;;9.23;;
19024;SDS011;9645;51.448;6.260;2023-10-31T05:22:40;23.77;;;10.10;;
19024;SDS011;9645;51.448;6.260;2023-10-31T05:25:07;24.25;;;10.40;;
19024;SDS011;9645;51.448;6.260;2023-10-31T05:27:34;24.27;;;10.40;;
19024;SDS011;9645;51.448;6.260;2023-10-31T05:30:01;25.83;;;9.70;;
19024;SDS011;9645;51.448;6.260;2023-10-31T05:32:30;19.67;;;9.52;;
19024;SDS011;9645;51.448;6.260;2023-10-31T05:34:57;20.63;;;10.45;;
19024;SDS011;9645;51.448;6.260;2023-10-31T05:37:24;17.52;;;8.57;;
19024;SDS011;9645;51.448;6.260;2023-10-31T05:39:51;19.73;;;9.30;;
19024;SDS011;9645;51.448;6.260;2023-10-31T05:42:18;17.92;;;8.90;;
19024;SDS011;9645;51.448;6.260;2023-10-31T05:44:46;17.63;;;8.93;;
19024;SDS011;9645;51.448;6.260;2023-10-31T05:47:14;19.48;;;8.55;;
19024;SDS011;9645;51.448;6.260;2023-10-31T05:49:43;31.73;;;13.20;;
19024;SDS011;9645;51.448;6.260;2023-10-31T05:52:10;29.15;;;12.68;;
19024;SDS011;9645;51.448;6.260;2023-10-31T05:54:37;21.30;;;9.90;;
19024;SDS011;9645;51.448;6.260;2023-10-31T05:57:04;22.42;;;9.82;;
19024;SDS011;9645;51.448;6.260;2023-10-31T05:59:31;18.02;;;8.82;;
19024;SDS011;9645;51.448;6.260;2023-10-31T06:01:58;23.40;;;9.27;;
19024;SDS011;9645;51.448;6.260;2023-10-31T06:04:25;19.27;;;8.85;;
19024;SDS011;9645;51.448;6.260;2023-10-31T06:06:54;19.80;;;9.43;;
19024;SDS011;9645;51.448;6.260;2023-10-31T06:09:21;18.48;;;9.20;;
19024;SDS011;9645;51.448;6.260;2023-10-31T06:11:48;21.05;;;9.40;;
19024;SDS011;9645;51.448;6.260;2023-10-31T06:14:14;19.52;;;8.88;;
19024;SDS011;9645;51.448;6.260;2023-10-31T06:16:41;19.23;;;8.82;;
19024;SDS011;9645;51.448;6.260;2023-10-31T06:19:10;20.88;;;10.07;;
19024;SDS011;9645;51.448;6.260;2023-10-31T06:21:37;22.55;;;10.90;;
19024;SDS011;9645;51.448;6.260;2023-10-31T06:24:06;19.65;;;10.10;;
19024;SDS011;9645;51.448;6.260;2023-10-31T06:26:34;18.55;;;9.75;;
19024;SDS011;9645;51.448;6.260;2023-10-31T06:29:07;23.40;;;11.70;;
19024;SDS011;9645;51.448;6.260;2023-10-31T06:31:34;22.98;;;10.85;;
19024;SDS011;9645;51.448;6.260;2023-10-31T06:34:01;24.23;;;11.05;;
19024;SDS011;9645;51.448;6.260;2023-10-31T06:36:28;23.30;;;10.57;;
19024;SDS011;9645;51.448;6.260;2023-10-31T06:38:55;23.48;;;11.80;;
19024;SDS011;9645;51.448;6.260;2023-10-31T06:41:23;25.75;;;10.63;;
19024;SDS011;9645;51.448;6.260;2023-10-31T06:43:51;24.02;;;11.40;;
19024;SDS011;9645;51.448;6.260;2023-10-31T06:46:18;23.85;;;11.02;;
19024;SDS011;9645;51.448;6.260;2023-10-31T06:48:45;21.48;;;10.70;;
19024;SDS011;9645;51.448;6.260;2023-10-31T06:51:12;29.00;;;11.77;;
19024;SDS011;9645;51.448;6.260;2023-10-31T06:53:39;25.25;;;11.65;;
19024;SDS011;9645;51.448;6.260;2023-10-31T06:56:07;28.00;;;12.95;;
19024;SDS011;9645;51.448;6.260;2023-10-31T06:58:35;24.35;;;11.50;;
19024;SDS011;9645;51.448;6.260;2023-10-31T07:01:02;27.70;;;12.52;;
19024;SDS011;9645;51.448;6.260;2023-10-31T07:03:29;25.83;;;12.82;;
19024;SDS011;9645;51.448;6.260;2023-10-31T07:05:57;27.38;;;12.02;;
19024;SDS011;9645;51.448;6.260;2023-10-31T07:08:24;26.92;;;12.10;;
19024;SDS011;9645;51.448;6.260;2023-10-31T07:10:51;22.95;;;11.35;;
19024;SDS011;9645;51.448;6.260;2023-10-31T07:13:18;23.15;;;11.60;;
19024;SDS011;9645;51.448;6.260;2023-10-31T07:15:47;30.25;;;12.02;;
19024;SDS011;9645;51.448;6.260;2023-10-31T07:18:14;24.50;;;11.30;;
19024;SDS011;9645;51.448;6.260;2023-10-31T07:20:41;27.13;;;11.88;;
19024;SDS011;9645;51.448;6.260;2023-10-31T07:23:08;23.27;;;11.65;;
19024;SDS011;9645;51.448;6.260;2023-10-31T07:25:35;26.15;;;11.80;;
19024;SDS011;9645;51.448;6.260;2023-10-31T07:28:01;29.95;;;12.70;;
19024;SDS011;9645;51.448;6.260;2023-10-31T07:30:28;24.33;;;12.25;;
19024;SDS011;9645;51.448;6.260;2023-10-31T07:32:57;26.13;;;11.85;;
19024;SDS011;9645;51.448;6.260;2023-10-31T07:35:24;25.30;;;12.40;;
19024;SDS011;9645;51.448;6.260;2023-10-31T07:37:51;27.80;;;13.60;;
19024;SDS011;9645;51.448;6.260;2023-10-31T07:40:18;29.10;;;11.95;;
19024;SDS011;9645;51.448;6.260;2023-10-31T07:42:44;37.97;;;13.10;;
19024;SDS011;9645;51.448;6.260;2023-10-31T07:45:12;26.55;;;12.38;;
19024;SDS011;9645;51.448;6.260;2023-10-31T07:47:39;22.27;;;11.32;;
19024;SDS011;9645;51.448;6.260;2023-10-31T07:50:07;25.45;;;11.77;;
19024;SDS011;9645;51.448;6.260;2023-10-31T07:52:35;24.70;;;12.15;;
19024;SDS011;9645;51.448;6.260;2023-10-31T07:55:02;26.42;;;11.35;;
19024;SDS011;9645;51.448;6.260;2023-10-31T07:57:29;32.03;;;11.38;;
19024;SDS011;9645;51.448;6.260;2023-10-31T07:59:56;26.80;;;11.40;;
19024;SDS011;9645;51.448;6.260;2023-10-31T08:02:23;23.65;;;10.45;;
19024;SDS011;9645;51.448;6.260;2023-10-31T08:04:50;23.95;;;10.20;;
19024;SDS011;9645;51.448;6.260;2023-10-31T08:07:18;18.55;;;10.35;;
19024;SDS011;9645;51.448;6.260;2023-10-31T08:09:45;18.47;;;9.80;;
19024;SDS011;9645;51.448;6.260;2023-10-31T08:12:12;16.43;;;8.40;;
19024;SDS011;9645;51.448;6.260;2023-10-31T08:14:39;19.30;;;8.70;;
19024;SDS011;9645;51.448;6.260;2023-10-31T08:17:06;13.38;;;7.88;;
19024;SDS011;9645;51.448;6.260;2023-10-31T08:19:34;15.83;;;7.67;;
19024;SDS011;9645;51.448;6.260;2023-10-31T08:22:01;13.38;;;7.68;;
19024;SDS011;9645;51.448;6.260;2023-10-31T08:24:29;15.10;;;8.23;;
19024;SDS011;9645;51.448;6.260;2023-10-31T08:26:56;13.95;;;8.10;;
19024;SDS011;9645;51.448;6.260;2023-10-31T08:29:24;11.23;;;6.70;;
19024;SDS011;9645;51.448;6.260;2023-10-31T08:31:51;15.43;;;7.67;;
19024;SDS011;9645;51.448;6.260;2023-10-31T08:34:18;15.70;;;7.07;;
19024;SDS011;9645;51.448;6.260;2023-10-31T08:36:45;15.77;;;8.33;;
19024;SDS011;9645;51.448;6.260;2023-10-31T08:39:12;15.40;;;7.40;;
19024;SDS011;9645;51.448;6.260;2023-10-31T08:41:50;17.13;;;8.70;;
19024;SDS011;9645;51.448;6.260;2023-10-31T08:44:17;20.77;;;8.83;;
19024;SDS011;9645;51.448;6.260;2023-10-31T08:46:44;17.27;;;8.40;;
19024;SDS011;9645;51.448;6.260;2023-10-31T08:49:11;22.50;;;9.70;;
19024;SDS011;9645;51.448;6.260;2023-10-31T08:51:39;23.10;;;10.60;;
19024;SDS011;9645;51.448;6.260;2023-10-31T08:54:06;19.07;;;9.43;;
19024;SDS011;9645;51.448;6.260;2023-10-31T08:56:34;22.10;;;9.63;;
19024;SDS011;9645;51.448;6.260;2023-10-31T08:59:02;21.00;;;10.40;;
19024;SDS011;9645;51.448;6.260;2023-10-31T09:01:29;18.33;;;9.30;;
19024;SDS011;9645;51.448;6.260;2023-10-31T09:03:58;15.80;;;8.80;;
19024;SDS011;9645;51.448;6.260;2023-10-31T09:06:25;18.87;;;9.40;;
19024;SDS011;9645;51.448;6.260;2023-10-31T09:08:52;23.20;;;10.37;;
19024;SDS011;9645;51.448;6.260;2023-10-31T09:11:19;34.23;;;11.30;;
19024;SDS011;9645;51.448;6.260;2023-10-31T09:13:47;19.80;;;11.40;;
19024;SDS011;9645;51.448;6.260;2023-10-31T09:16:15;28.67;;;11.17;;
19024;SDS011;9645;51.448;6.260;2023-10-31T09:18:42;23.23;;;10.60;;
19024;SDS011;9645;51.448;6.260;2023-10-31T09:21:10;27.50;;;11.43;;
19024;SDS011;9645;51.448;6.260;2023-10-31T09:23:37;22.60;;;10.37;;
19024;SDS011;9645;51.448;6.260;2023-10-31T09:26:04;19.83;;;9.60;;
19024;SDS011;9645;51.448;6.260;2023-10-31T09:28:31;26.30;;;12.80;;
19024;SDS011;9645;51.448;6.260;2023-10-31T09:30:57;21.63;;;10.80;;
19024;SDS011;9645;51.448;6.260;2023-10-31T09:33:28;31.47;;;11.97;;
19024;SDS011;9645;51.448;6.260;2023-10-31T09:35:55;26.33;;;11.20;;
19024;SDS011;9645;51.448;6.260;2023-10-31T09:38:22;22.63;;;10.73;;
19024;SDS011;9645;51.448;6.260;2023-10-31T09:40:49;22.40;;;10.43;;
19024;SDS011;9645;51.448;6.260;2023-10-31T09:43:16;22.80;;;10.60;;
19024;SDS011;9645;51.448;6.260;2023-10-31T09:45:43;25.37;;;12.37;;
19024;SDS011;9645;51.448;6.260;2023-10-31T09:48:11;19.60;;;10.40;;
19024;SDS011;9645;51.448;6.260;2023-10-31T09:50:40;25.17;;;10.53;;
19024;SDS011;9645;51.448;6.260;2023-10-31T09:53:07;19.07;;;9.50;;
19024;SDS011;9645;51.448;6.260;2023-10-31T09:55:35;15.50;;;8.63;;
19024;SDS011;9645;51.448;6.260;2023-10-31T09:58:03;17.87;;;9.07;;
19024;SDS011;9645;51.448;6.260;2023-10-31T10:00:30;20.87;;;10.80;;
19024;SDS011;9645;51.448;6.260;2023-10-31T10:02:57;20.00;;;9.97;;
19024;SDS011;9645;51.448;6.260;2023-10-31T10:05:25;16.33;;;9.20;;
19024;SDS011;9645;51.448;6.260;2023-10-31T10:07:56;20.73;;;9.97;;
19024;SDS011;9645;51.448;6.260;2023-10-31T10:10:23;20.67;;;10.17;;
19024;SDS011;9645;51.448;6.260;2023-10-31T10:12:51;21.27;;;9.83;;
19024;SDS011;9645;51.448;6.260;2023-10-31T10:15:18;18.47;;;9.20;;
19024;SDS011;9645;51.448;6.260;2023-10-31T10:17:48;18.40;;;9.73;;
19024;SDS011;9645;51.448;6.260;2023-10-31T10:20:16;22.27;;;9.10;;
19024;SDS011;9645;51.448;6.260;2023-10-31T10:22:44;18.40;;;9.43;;
19024;SDS011;9645;51.448;6.260;2023-10-31T10:25:14;16.43;;;9.50;;
19024;SDS011;9645;51.448;6.260;2023-10-31T10:27:42;17.00;;;8.30;;
19024;SDS011;9645;51.448;6.260;2023-10-31T10:30:09;15.00;;;7.07;;
19024;SDS011;9645;51.448;6.260;2023-10-31T10:32:37;13.53;;;7.30;;
19024;SDS011;9645;51.448;6.260;2023-10-31T10:35:05;15.63;;;7.20;;
19024;SDS011;9645;51.448;6.260;2023-10-31T10:37:33;9.73;;;6.50;;
19024;SDS011;9645;51.448;6.260;2023-10-31T10:40:03;13.13;;;6.30;;
19024;SDS011;9645;51.448;6.260;2023-10-31T10:42:36;13.10;;;7.03;;
19024;SDS011;9645;51.448;6.260;2023-10-31T10:45:08;13.20;;;6.87;;
19024;SDS011;9645;51.448;6.260;2023-10-31T10:47:37;13.90;;;5.80;;
19024;SDS011;9645;51.448;6.260;2023-10-31T10:50:06;13.47;;;6.67;;
19024;SDS011;9645;51.448;6.260;2023-10-31T10:52:38;15.30;;;6.30;;
19024;SDS011;9645;51.448;6.260;2023-10-31T10:55:12;12.10;;;5.67;;
19024;SDS011;9645;51.448;6.260;2023-10-31T10:57:47;14.70;;;5.60;;
19024;SDS011;9645;51.448;6.260;2023-10-31T11:00:19;10.47;;;5.47;;
19024;SDS011;9645;51.448;6.260;2023-10-31T11:02:49;10.73;;;6.07;;
19024;SDS011;9645;51.448;6.260;2023-10-31T11:05:18;13.73;;;5.60;;
19024;SDS011;9645;51.448;6.260;2023-10-31T11:07:45;16.80;;;5.87;;
19024;SDS011;9645;51.448;6.260;2023-10-31T11:10:13;11.60;;;6.13;;
19024;SDS011;9645;51.448;6.260;2023-10-31T11:12:41;12.17;;;5.27;;
19024;SDS011;9645;51.448;6.260;2023-10-31T11:15:11;10.20;;;5.30;;
19024;SDS011;9645;51.448;6.260;2023-10-31T11:17:41;8.00;;;4.30;;
19024;SDS011;9645;51.448;6.260;2023-10-31T11:20:10;10.63;;;5.10;;
19024;SDS011;9645;51.448;6.260;2023-10-31T11:22:39;11.17;;;5.33;;
19024;SDS011;9645;51.448;6.260;2023-10-31T11:25:07;9.17;;;4.87;;
19024;SDS011;9645;51.448;6.260;2023-10-31T11:27:35;13.70;;;4.60;;
19024;SDS011;9645;51.448;6.260;2023-10-31T11:30:08;11.50;;;5.20;;
19024;SDS011;9645;51.448;6.260;2023-10-31T11:32:57;7.97;;;5.00;;
19024;SDS011;9645;51.448;6.260;2023-10-31T11:35:26;10.10;;;4.70;;
19024;SDS011;9645;51.448;6.260;2023-10-31T11:38:00;11.67;;;5.23;;
19024;SDS011;9645;51.448;6.260;2023-10-31T11:40:28;6.70;;;4.60;;
19024;SDS011;9645;51.448;6.260;2023-10-31T11:42:56;10.80;;;4.93;;
19024;SDS011;9645;51.448;6.260;2023-10-31T11:45:29;9.07;;;4.40;;
19024;SDS011;9645;51.448;6.260;2023-10-31T11:47:58;10.30;;;4.90;;
19024;SDS011;9645;51.448;6.260;2023-10-31T11:50:25;7.50;;;4.17;;
19024;SDS011;9645;51.448;6.260;2023-10-31T11:55:42;6.40;;;3.90;;
19024;SDS011;9645;51.448;6.260;2023-10-31T11:58:16;5.70;;;4.00;;
19024;SDS011;9645;51.448;6.260;2023-10-31T12:00:46;8.20;;;4.30;;
19024;SDS011;9645;51.448;6.260;2023-10-31T12:03:15;9.03;;;4.00;;
19024;SDS011;9645;51.448;6.260;2023-10-31T12:05:52;8.30;;;4.10;;
19024;SDS011;9645;51.448;6.260;2023-10-31T12:08:26;5.93;;;3.97;;
19024;SDS011;9645;51.448;6.260;2023-10-31T12:11:02;9.07;;;3.77;;
19024;SDS011;9645;51.448;6.260;2023-10-31T12:13:33;11.10;;;3.67;;
19024;SDS011;9645;51.448;6.260;2023-10-31T12:16:02;4.73;;;3.13;;
19024;SDS011;9645;51.448;6.260;2023-10-31T12:18:30;4.30;;;2.77;;
19024;SDS011;9645;51.448;6.260;2023-10-31T12:20:57;3.50;;;2.90;;
19024;SDS011;9645;51.448;6.260;2023-10-31T12:23:24;6.27;;;3.27;;
19024;SDS011;9645;51.448;6.260;2023-10-31T12:25:51;6.10;;;3.27;;
19024;SDS011;9645;51.448;6.260;2023-10-31T12:28:19;7.73;;;2.80;;
19024;SDS011;9645;51.448;6.260;2023-10-31T12:30:47;4.43;;;2.40;;
19024;SDS011;9645;51.448;6.260;2023-10-31T12:33:16;2.87;;;2.10;;
19024;SDS011;9645;51.448;6.260;2023-10-31T12:35:43;7.57;;;2.83;;
19024;SDS011;9645;51.448;6.260;2023-10-31T12:38:13;4.97;;;2.60;;
19024;SDS011;9645;51.448;6.260;2023-10-31T12:40:42;3.33;;;2.90;;
19024;SDS011;9645;51.448;6.260;2023-10-31T12:43:10;5.10;;;2.37;;
19024;SDS011;9645;51.448;6.260;2023-10-31T12:45:37;4.60;;;2.60;;
19024;SDS011;9645;51.448;6.260;2023-10-31T12:48:05;5.60;;;2.70;;
19024;SDS011;9645;51.448;6.260;2023-10-31T12:50:35;3.27;;;2.50;;
19024;SDS011;9645;51.448;6.260;2023-10-31T12:53:04;7.37;;;2.60;;
19024;SDS011;9645;51.448;6.260;2023-10-31T12:55:37;3.97;;;2.77;;
19024;SDS011;9645;51.448;6.260;2023-10-31T12:58:05;15.17;;;3.30;;
19024;SDS011;9645;51.448;6.260;2023-10-31T13:00:35;5.07;;;2.60;;
19024;SDS011;9645;51.448;6.260;2023-10-31T13:03:03;3.00;;;2.47;;
19024;SDS011;9645;51.448;6.260;2023-10-31T13:05:31;3.23;;;2.17;;
19024;SDS011;9645;51.448;6.260;2023-10-31T13:08:00;5.80;;;2.70;;
19024;SDS011;9645;51.448;6.260;2023-10-31T13:10:30;2.37;;;2.00;;
19024;SDS011;9645;51.448;6.260;2023-10-31T13:12:57;3.63;;;2.40;;
19024;SDS011;9645;51.448;6.260;2023-10-31T13:15:25;7.20;;;2.47;;
19024;SDS011;9645;51.448;6.260;2023-10-31T13:17:52;1.87;;;1.70;;
19024;SDS011;9645;51.448;6.260;2023-10-31T13:20:19;5.40;;;1.80;;
19024;SDS011;9645;51.448;6.260;2023-10-31T13:22:47;3.07;;;2.20;;
19024;SDS011;9645;51.448;6.260;2023-10-31T13:25:15;4.20;;;1.93;;
19024;SDS011;9645;51.448;6.260;2023-10-31T13:27:43;4.20;;;1.67;;
19024;SDS011;9645;51.448;6.260;2023-10-31T13:30:12;2.20;;;1.83;;
19024;SDS011;9645;51.448;6.260;2023-10-31T13:32:42;5.90;;;1.87;;
19024;SDS011;9645;51.448;6.260;2023-10-31T13:35:09;3.43;;;1.60;;
19024;SDS011;9645;51.448;6.260;2023-10-31T13:37:37;4.63;;;1.27;;
19024;SDS011;9645;51.448;6.260;2023-10-31T13:40:04;5.10;;;1.60;;
19024;SDS011;9645;51.448;6.260;2023-10-31T13:42:35;1.50;;;1.40;;
19024;SDS011;9645;51.448;6.260;2023-10-31T13:45:02;1.87;;;1.53;;
19024;SDS011;9645;51.448;6.260;2023-10-31T13:47:29;5.37;;;1.97;;
19024;SDS011;9645;51.448;6.260;2023-10-31T13:49:56;2.47;;;1.80;;
19024;SDS011;9645;51.448;6.260;2023-10-31T13:52:23;3.63;;;1.70;;
19024;SDS011;9645;51.448;6.260;2023-10-31T13:54:50;5.33;;;1.97;;
19024;SDS011;9645;51.448;6.260;2023-10-31T13:57:17;3.87;;;2.07;;
19024;SDS011;9645;51.448;6.260;2023-10-31T13:59:45;12.53;;;2.10;;
19024;SDS011;9645;51.448;6.260;2023-10-31T14:02:13;3.30;;;2.17;;
19024;SDS011;9645;51.448;6.260;2023-10-31T14:04:42;2.83;;;2.03;;
19024;SDS011;9645;51.448;6.260;2023-10-31T14:07:09;4.50;;;2.03;;
19024;SDS011;9645;51.448;6.260;2023-10-31T14:09:41;3.93;;;2.40;;
19024;SDS011;9645;51.448;6.260;2023-10-31T14:12:08;5.17;;;2.20;;
19024;SDS011;9645;51.448;6.260;2023-10-31T14:14:35;2.93;;;2.23;;
19024;SDS011;9645;51.448;6.260;2023-10-31T14:17:03;3.10;;;2.10;;
19024;SDS011;9645;51.448;6.260;2023-10-31T14:19:30;2.13;;;1.83;;
19024;SDS011;9645;51.448;6.260;2023-10-31T14:21:57;3.90;;;2.47;;
19024;SDS011;9645;51.448;6.260;2023-10-31T14:24:25;7.47;;;3.03;;
19024;SDS011;9645;51.448;6.260;2023-10-31T14:26:53;3.10;;;2.13;;
19024;SDS011;9645;51.448;6.260;2023-10-31T14:29:20;7.33;;;2.57;;
19024;SDS011;9645;51.448;6.260;2023-10-31T14:31:48;8.33;;;2.33;;
19024;SDS011;9645;51.448;6.260;2023-10-31T14:34:16;2.47;;;2.20;;
19024;SDS011;9645;51.448;6.260;2023-10-31T14:36:43;3.43;;;1.93;;
19024;SDS011;9645;51.448;6.260;2023-10-31T14:39:10;9.40;;;2.50;;
19024;SDS011;9645;51.448;6.260;2023-10-31T14:41:37;6.23;;;2.50;;
19024;SDS011;9645;51.448;6.260;2023-10-31T14:44:04;4.30;;;2.70;;
19024;SDS011;9645;51.448;6.260;2023-10-31T14:46:31;2.93;;;2.27;;
19024;SDS011;9645;51.448;6.260;2023-10-31T14:48:58;3.73;;;2.47;;
19024;SDS011;9645;51.448;6.260;2023-10-31T14:51:26;5.77;;;2.70;;
19024;SDS011;9645;51.448;6.260;2023-10-31T14:53:53;8.20;;;3.00;;